Time;durP1;ratioP1;P1;durP2;ratioP2;P2;SDS_P1;SDS_P2;PMS_P1;PMS_P2;Temp;Humidity;BMP_temperature;BMP_pressure;BME280_temperature;BME280_humidity;BME280_pressure;Samples;Min_cycle;Max_cycle;Signal;HPM_P1;HPM_P2
2023/12/28 00:02:22;;;;;;;1999.90;999.90;;;10.70;99.90;;;;;;5015419;28;20176;-72
2023/12/28 00:04:47;;;;;;;1999.90;999.90;;;10.60;99.90;;;;;;5017720;28;20194;-73
2023/12/28 00:07:13;;;;;;;1999.90;999.90;;;10.60;99.90;;;;;;5014443;28;20202;-72
2023/12/28 00:09:39;;;;;;;1999.90;999.90;;;10.50;99.90;;;;;;5013987;28;20612;-72
2023/12/28 00:12:05;;;;;;;1999.90;999.90;;;10.50;99.90;;;;;;5011292;28;20433;-73
2023/12/28 00:14:30;;;;;;;1999.90;999.90;;;10.50;99.90;;;;;;5011184;28;20203;-72
2023/12/28 00:16:56;;;;;;;1999.90;999.90;;;10.40;99.90;;;;;;5014467;28;20981;-73
2023/12/28 00:19:22;;;;;;;1999.90;999.90;;;10.30;99.90;;;;;;5014182;28;20683;-73
2023/12/28 00:21:47;;;;;;;1999.90;999.90;;;10.30;99.90;;;;;;5014642;28;20179;-72
2023/12/28 00:24:15;;;;;;;1999.90;999.90;;;10.30;99.90;;;;;;5006613;28;20671;-72
2023/12/28 00:26:40;;;;;;;1999.90;999.90;;;10.20;99.90;;;;;;5011791;28;20206;-72
2023/12/28 00:29:06;;;;;;;1999.90;999.90;;;;;;;;;;5014497;28;20430;-74
2023/12/28 00:31:32;;;;;;;1999.90;999.90;;;10.10;99.90;;;;;;5031223;28;20183;-73
2023/12/28 00:33:58;;;;;;;1999.90;999.90;;;10.10;99.90;;;;;;5014565;28;20539;-72
2023/12/28 00:36:23;;;;;;;1999.90;999.90;;;10.10;99.90;;;;;;5014843;28;20211;-72
2023/12/28 00:38:49;;;;;;;1999.90;999.90;;;10.10;99.90;;;;;;5014330;28;20253;-72
2023/12/28 00:41:14;;;;;;;1999.90;999.90;;;10.20;99.90;;;;;;5012586;28;20191;-72
2023/12/28 00:43:40;;;;;;;1999.90;999.90;;;10.10;99.90;;;;;;5015157;28;20215;-73
2023/12/28 00:46:05;;;;;;;1999.90;999.90;;;10.10;99.90;;;;;;5014806;28;20214;-71
2023/12/28 00:48:31;;;;;;;1999.90;999.90;;;10.10;99.90;;;;;;5013381;28;20187;-72
2023/12/28 00:50:58;;;;;;;1999.90;999.90;;;10.10;99.90;;;;;;5012851;28;20236;-70
2023/12/28 00:53:25;;;;;;;1999.90;999.90;;;10.10;99.90;;;;;;5013312;28;20182;-74
2023/12/28 00:55:51;;;;;;;1999.90;999.90;;;10.30;99.90;;;;;;5001759;28;20518;-74
2023/12/28 00:58:17;;;;;;;1999.90;999.90;;;10.10;99.90;;;;;;5000966;28;20463;-73
2023/12/28 01:00:42;;;;;;;1999.90;999.90;;;10.20;99.90;;;;;;5013800;28;20172;-74
2023/12/28 01:03:08;;;;;;;1999.90;999.90;;;10.20;99.90;;;;;;5012778;28;20229;-72
2023/12/28 01:05:34;;;;;;;1999.90;999.90;;;10.20;99.90;;;;;;5014563;28;20180;-73
2023/12/28 01:08:02;;;;;;;1999.90;999.90;;;10.20;99.90;;;;;;5014024;28;20203;-72
2023/12/28 01:10:28;;;;;;;1999.90;999.90;;;10.20;99.90;;;;;;5012627;28;20556;-72
2023/12/28 01:12:53;;;;;;;1999.90;999.90;;;10.20;99.90;;;;;;4997734;28;20505;-72
2023/12/28 01:15:20;;;;;;;1999.90;999.90;;;10.20;99.90;;;;;;5012556;28;20287;-74
2023/12/28 01:17:46;;;;;;;1999.90;999.90;;;10.30;99.90;;;;;;5012090;28;20212;-71
2023/12/28 01:20:12;;;;;;;1999.90;999.90;;;10.30;99.90;;;;;;5012136;28;20517;-70
2023/12/28 01:22:37;;;;;;;1999.90;999.90;;;10.30;99.90;;;;;;5004516;28;20506;-72
2023/12/28 01:25:03;;;;;;;1999.90;999.90;;;10.30;99.90;;;;;;5012195;28;20664;-71
2023/12/28 01:27:29;;;;;;;1999.90;999.90;;;10.30;99.90;;;;;;5012176;28;20238;-74
2023/12/28 01:29:55;;;;;;;1999.90;999.90;;;10.40;99.90;;;;;;5013502;28;20424;-71
2023/12/28 01:32:22;;;;;;;1999.90;999.90;;;10.40;99.90;;;;;;5011843;28;20251;-71
2023/12/28 01:34:48;;;;;;;1999.90;999.90;;;10.40;99.90;;;;;;5012684;28;20192;-71
2023/12/28 01:37:13;;;;;;;1999.90;999.90;;;10.40;99.90;;;;;;5013819;28;20474;-73
2023/12/28 01:39:39;;;;;;;1999.90;999.90;;;10.50;99.90;;;;;;5012082;28;20726;-72
2023/12/28 01:42:05;;;;;;;1999.90;999.90;;;10.40;99.90;;;;;;5016916;28;20256;-73
2023/12/28 01:44:31;;;;;;;1999.90;999.90;;;10.40;99.90;;;;;;5006431;28;20479;-73
2023/12/28 01:46:56;;;;;;;1999.90;999.90;;;10.40;99.90;;;;;;5013080;28;20205;-73
2023/12/28 01:49:23;;;;;;;1999.90;999.90;;;10.50;99.90;;;;;;5013535;28;20180;-70
2023/12/28 01:51:49;;;;;;;1999.90;999.90;;;10.40;99.90;;;;;;5012919;28;20529;-72
2023/12/28 01:54:16;;;;;;;1999.90;999.90;;;10.40;99.90;;;;;;5013101;28;20417;-70
2023/12/28 01:56:43;;;;;;;1999.90;999.90;;;10.40;99.90;;;;;;5012473;28;20832;-72
2023/12/28 01:59:09;;;;;;;1999.90;999.90;;;10.30;99.90;;;;;;5012787;28;20427;-72
2023/12/28 02:01:34;;;;;;;1999.90;999.90;;;10.30;99.90;;;;;;5012464;28;20421;-73
2023/12/28 02:04:01;;;;;;;1999.90;999.90;;;10.30;99.90;;;;;;5013815;28;20214;-74
2023/12/28 02:06:27;;;;;;;1999.90;999.90;;;10.30;99.90;;;;;;5016926;28;20203;-72
2023/12/28 02:08:52;;;;;;;1999.90;999.90;;;10.30;99.90;;;;;;5008351;28;20424;-73
2023/12/28 02:11:19;;;;;;;1999.90;999.90;;;10.30;99.90;;;;;;5008778;28;20183;-71
2023/12/28 02:13:45;;;;;;;1999.90;999.90;;;10.30;99.90;;;;;;5010974;28;20180;-72
2023/12/28 02:16:16;;;;;;;1999.90;999.90;;;10.30;99.90;;;;;;5015475;28;20549;-73
2023/12/28 02:18:49;;;;;;;1999.90;999.90;;;10.30;99.90;;;;;;5018229;28;20407;-73
2023/12/28 02:21:16;;;;;;;1999.90;999.90;;;10.30;99.90;;;;;;5016361;28;20421;-70
2023/12/28 02:23:50;;;;;;;1999.90;999.90;;;10.30;99.90;;;;;;5015727;28;20473;-71
2023/12/28 02:26:19;;;;;;;1999.90;999.90;;;10.30;99.90;;;;;;5016146;28;20501;-73
2023/12/28 02:28:45;;;;;;;1999.90;999.90;;;10.30;99.90;;;;;;5010109;28;20427;-72
2023/12/28 02:31:24;;;;;;;1999.90;999.90;;;10.30;99.90;;;;;;5017273;28;20427;-72
2023/12/28 02:33:57;;;;;;;1999.90;999.90;;;10.30;99.90;;;;;;5015326;28;20909;-72
2023/12/28 02:36:26;;;;;;;1999.90;999.90;;;10.30;99.90;;;;;;5016259;28;20546;-72
2023/12/28 02:38:52;;;;;;;1999.90;999.90;;;10.30;99.90;;;;;;5015238;28;20404;-72
2023/12/28 02:41:19;;;;;;;1999.90;999.90;;;10.40;99.90;;;;;;5016257;28;20423;-71
2023/12/28 02:43:46;;;;;;;1999.90;999.90;;;10.30;99.90;;;;;;5007932;28;20419;-73
2023/12/28 02:46:12;;;;;;;1999.90;999.90;;;10.40;99.90;;;;;;5016650;28;20442;-73
2023/12/28 02:48:38;;;;;;;1999.90;999.90;;;10.40;99.90;;;;;;5014320;28;20785;-72
2023/12/28 02:51:04;;;;;;;1999.90;999.90;;;10.40;99.90;;;;;;5015960;28;20180;-72
2023/12/28 02:53:30;;;;;;;1999.90;999.90;;;10.40;99.90;;;;;;5009315;28;20509;-72
2023/12/28 02:55:55;;;;;;;1999.90;999.90;;;10.50;99.90;;;;;;5012526;28;20174;-70
2023/12/28 02:58:21;;;;;;;1999.90;999.90;;;10.50;99.90;;;;;;5016703;28;20180;-73
2023/12/28 03:00:47;;;;;;;1999.90;999.90;;;10.50;99.90;;;;;;5016890;28;20184;-72
2023/12/28 03:03:12;;;;;;;1999.90;999.90;;;10.40;99.90;;;;;;5016090;28;20173;-73
2023/12/28 03:05:38;;;;;;;1999.90;999.90;;;10.50;99.90;;;;;;5016009;28;20398;-71
2023/12/28 03:08:04;;;;;;;1999.90;999.90;;;10.50;99.90;;;;;;5015192;28;20662;-72
2023/12/28 03:10:29;;;;;;;1999.90;999.90;;;10.50;99.90;;;;;;5016581;28;20267;-74
2023/12/28 03:12:55;;;;;;;1999.90;999.90;;;10.50;99.90;;;;;;5016480;28;20172;-72
2023/12/28 03:15:21;;;;;;;1999.90;999.90;;;10.50;99.90;;;;;;5015606;28;20652;-72
2023/12/28 03:17:46;;;;;;;1999.90;999.90;;;10.60;99.90;;;;;;5016464;28;20508;-72
2023/12/28 03:20:12;;;;;;;1999.90;999.90;;;10.60;99.90;;;;;;5014713;28;20639;-72
2023/12/28 03:22:37;;;;;;;1999.90;999.90;;;10.60;99.90;;;;;;5018492;28;20163;-73
2023/12/28 03:25:03;;;;;;;1999.90;999.90;;;10.60;99.90;;;;;;5016081;28;20564;-72
2023/12/28 03:27:29;;;;;;;1999.90;999.90;;;10.60;99.90;;;;;;5014933;28;20203;-71
2023/12/28 03:29:55;;;;;;;1999.90;999.90;;;10.60;99.90;;;;;;5016710;28;20427;-72
2023/12/28 03:32:20;;;;;;;1999.90;999.90;;;10.60;99.90;;;;;;5016838;28;20181;-73
2023/12/28 03:34:46;;;;;;;1999.90;999.90;;;10.70;99.90;;;;;;5014860;28;20367;-72
2023/12/28 03:37:11;;;;;;;1999.90;999.90;;;10.70;99.90;;;;;;5015744;28;20199;-72
2023/12/28 03:39:37;;;;;;;1999.90;999.90;;;10.70;99.90;;;;;;5016640;28;20179;-73
2023/12/28 03:42:03;;;;;;;1999.90;999.90;;;10.70;99.90;;;;;;5015539;28;20182;-71
2023/12/28 03:44:28;;;;;;;1999.90;999.90;;;10.70;99.90;;;;;;5015672;28;20250;-72
2023/12/28 03:46:54;;;;;;;1999.90;999.90;;;10.70;99.90;;;;;;5015382;28;20242;-71
2023/12/28 03:49:21;;;;;;;1999.90;999.90;;;10.80;99.90;;;;;;5015341;28;20183;-73
2023/12/28 03:51:49;;;;;;;1999.90;999.90;;;10.80;99.90;;;;;;5013901;28;20295;-72
2023/12/28 03:54:18;;;;;;;1999.90;999.90;;;10.80;99.90;;;;;;5015617;28;20485;-72
2023/12/28 03:56:45;;;;;;;1999.90;999.90;;;10.80;99.90;;;;;;5012437;28;20486;-72
2023/12/28 03:59:11;;;;;;;1999.90;999.90;;;10.80;99.90;;;;;;5015097;28;20412;-72
2023/12/28 04:01:36;;;;;;;1999.90;999.90;;;10.80;99.90;;;;;;5013912;28;20433;-74
2023/12/28 04:04:02;;;;;;;1999.90;999.90;;;10.80;99.90;;;;;;5015623;28;20631;-73
2023/12/28 04:06:28;;;;;;;1999.90;999.90;;;10.80;99.90;;;;;;5014018;28;20246;-72
2023/12/28 04:08:53;;;;;;;1999.90;999.90;;;10.80;99.90;;;;;;5014657;28;20171;-72
2023/12/28 04:11:19;;;;;;;1999.90;999.90;;;10.80;99.90;;;;;;5015843;28;20663;-72
2023/12/28 04:13:45;;;;;;;1999.90;999.90;;;10.80;99.90;;;;;;5013432;28;20192;-73
2023/12/28 04:16:14;;;;;;;1999.90;999.90;;;10.60;99.90;;;;;;5057507;23;20302;-72
2023/12/28 04:18:41;;;;;;;1999.90;999.90;;;10.80;99.90;;;;;;5016197;28;20966;-73
2023/12/28 04:21:11;;;;;;;1999.90;999.90;;;10.70;99.90;;;;;;5024211;28;20509;-73
2023/12/28 04:23:38;;;;;;;1999.90;999.90;;;10.70;99.90;;;;;;5032664;28;20475;-73
2023/12/28 04:26:03;;;;;;;1999.90;999.90;;;10.90;99.90;;;;;;5032507;28;20484;-73
2023/12/28 04:28:29;;;;;;;1999.90;999.90;;;10.70;99.90;;;;;;5028069;28;20629;-73
2023/12/28 04:30:55;;;;;;;1999.90;999.90;;;10.70;99.90;;;;;;5032478;28;20842;-73
2023/12/28 04:33:21;;;;;;;1999.90;999.90;;;10.70;99.90;;;;;;5032445;28;20412;-73
2023/12/28 04:35:46;;;;;;;1999.90;999.90;;;10.70;99.90;;;;;;5032402;28;20406;-73
2023/12/28 04:38:13;;;;;;;1999.90;999.90;;;10.80;99.90;;;;;;5032401;28;20564;-73
2023/12/28 04:40:38;;;;;;;1999.90;999.90;;;10.70;99.90;;;;;;5032377;28;20223;-73
2023/12/28 04:43:04;;;;;;;1999.90;999.90;;;10.70;99.90;;;;;;5028759;28;20508;-73
2023/12/28 04:45:29;;;;;;;1999.90;999.90;;;10.70;99.90;;;;;;5028365;28;20188;-73
2023/12/28 04:47:55;;;;;;;1999.90;999.90;;;10.60;99.90;;;;;;5032154;28;20218;-73
2023/12/28 04:50:21;;;;;;;1999.90;999.90;;;10.60;99.90;;;;;;5032282;28;20176;-73
2023/12/28 04:52:46;;;;;;;1999.90;999.90;;;10.60;99.90;;;;;;5032006;28;20173;-73
2023/12/28 04:55:12;;;;;;;1999.90;999.90;;;10.60;99.90;;;;;;5032097;28;20160;-73
2023/12/28 04:57:37;;;;;;;1999.90;999.90;;;10.70;99.90;;;;;;5032017;28;20588;-73
2023/12/28 05:00:04;;;;;;;1999.90;999.90;;;10.70;99.90;;;;;;5027922;28;20179;-73
2023/12/28 05:02:30;;;;;;;1999.90;999.90;;;10.70;99.90;;;;;;5031690;28;20168;-73
2023/12/28 05:04:55;;;;;;;1999.90;999.90;;;10.60;99.90;;;;;;5032046;28;20406;-74
2023/12/28 05:07:21;;;;;;;1999.90;999.90;;;10.70;99.90;;;;;;5032048;28;20700;-73
2023/12/28 05:09:46;;;;;;;1999.90;999.90;;;10.70;99.70;;;;;;5032056;28;20175;-73
2023/12/28 05:12:12;;;;;;;1999.90;999.90;;;10.70;99.90;;;;;;5031737;28;20715;-73
2023/12/28 05:14:37;;;;;;;1999.90;999.90;;;10.70;99.90;;;;;;5031886;28;20577;-73
2023/12/28 05:17:03;;;;;;;1999.90;999.90;;;10.70;99.90;;;;;;5031626;28;20214;-73
2023/12/28 05:19:29;;;;;;;1999.90;999.90;;;10.70;99.90;;;;;;5031902;28;20166;-73
2023/12/28 05:21:55;;;;;;;1999.90;999.90;;;10.70;99.90;;;;;;5031650;28;20402;-73
2023/12/28 05:24:20;;;;;;;1999.90;999.90;;;10.60;99.90;;;;;;5031783;28;20175;-73
2023/12/28 05:26:46;;;;;;;1999.90;999.90;;;10.60;99.90;;;;;;5031874;28;20804;-73
2023/12/28 05:29:12;;;;;;;1999.90;999.90;;;10.60;99.90;;;;;;5031814;28;20186;-73
2023/12/28 05:31:37;;;;;;;1999.90;999.90;;;10.50;99.90;;;;;;5031530;28;20176;-73
2023/12/28 05:34:04;;;;;;;1999.90;999.90;;;10.50;99.90;;;;;;5031720;28;20230;-73
2023/12/28 05:36:29;;;;;;;1999.90;999.90;;;10.60;99.90;;;;;;5031571;28;20211;-73
2023/12/28 05:38:55;;;;;;;1999.90;999.90;;;10.60;99.90;;;;;;5032126;28;20795;-74
2023/12/28 05:41:20;;;;;;;1999.90;999.90;;;10.60;99.90;;;;;;5035532;28;20163;-73
2023/12/28 05:43:46;;;;;;;1999.90;999.90;;;10.70;99.90;;;;;;5035620;28;20858;-74
2023/12/28 05:46:12;;;;;;;1999.90;999.90;;;10.80;99.90;;;;;;5028408;28;20187;-74
2023/12/28 05:48:37;;;;;;;1999.90;999.90;;;10.70;99.90;;;;;;5035404;28;20180;-74
2023/12/28 05:51:03;;;;;;;1999.90;999.90;;;10.70;99.10;;;;;;5035371;28;20531;-73
2023/12/28 05:53:29;;;;;;;1999.90;999.90;;;10.80;98.20;;;;;;5035366;28;20179;-73
2023/12/28 05:55:54;;;;;;;1999.90;999.90;;;10.80;98.30;;;;;;5035393;28;20282;-73
2023/12/28 05:58:20;;;;;;;1999.90;999.90;;;10.80;98.60;;;;;;5035315;28;20183;-74
2023/12/28 06:00:48;;;;;;;1999.90;999.90;;;10.80;98.90;;;;;;5035142;28;20162;-73
2023/12/28 06:03:17;;;;;;;1999.90;999.90;;;10.80;98.70;;;;;;5035264;28;20164;-73
2023/12/28 06:05:42;;;;;;;1999.90;999.90;;;10.80;97.90;;;;;;5035233;28;20414;-74
2023/12/28 06:08:08;;;;;;;1999.90;999.90;;;10.80;97.40;;;;;;5035076;28;20430;-73
2023/12/28 06:10:33;;;;;;;1999.90;999.90;;;10.90;97.30;;;;;;5035220;28;20213;-73
2023/12/28 06:12:59;;;;;;;1999.90;999.90;;;10.80;97.50;;;;;;5035003;28;20182;-74
2023/12/28 06:15:24;;;;;;;1999.90;999.90;;;10.80;98.00;;;;;;5035018;28;20206;-73
2023/12/28 06:17:50;;;;;;;1999.90;999.90;;;10.80;97.70;;;;;;5034813;28;20576;-73
2023/12/28 06:20:15;;;;;;;1999.90;999.90;;;10.80;98.00;;;;;;5035041;28;20258;-73
2023/12/28 06:22:42;;;;;;;1999.90;999.90;;;10.70;98.40;;;;;;5034692;28;20164;-73
2023/12/28 06:25:08;;;;;;;1999.90;999.90;;;10.70;98.70;;;;;;5034848;28;20157;-73
2023/12/28 06:27:33;;;;;;;1999.90;999.90;;;10.70;98.60;;;;;;5034743;28;20437;-73
2023/12/28 06:29:59;;;;;;;1999.90;999.90;;;10.70;98.30;;;;;;5034820;28;20166;-73
2023/12/28 06:32:25;;;;;;;1999.90;999.90;;;10.60;98.50;;;;;;5034623;28;20663;-73
2023/12/28 06:34:50;;;;;;;1999.90;999.90;;;10.70;98.20;;;;;;5034738;28;20179;-73
2023/12/28 06:37:16;;;;;;;1999.90;999.90;;;10.70;98.30;;;;;;5034419;28;20293;-74
2023/12/28 06:39:41;;;;;;;1999.90;999.90;;;10.70;97.60;;;;;;5034632;28;20175;-73
2023/12/28 06:42:07;;;;;;;1999.90;999.90;;;10.70;98.20;;;;;;5034436;28;20172;-73
2023/12/28 06:44:33;;;;;;;1999.90;999.90;;;10.70;97.80;;;;;;5034448;28;20183;-73
2023/12/28 06:46:59;;;;;;;1999.90;999.90;;;10.60;98.20;;;;;;5034427;28;20188;-73
2023/12/28 06:49:25;;;;;;;1999.90;999.90;;;10.60;98.90;;;;;;5034424;28;20769;-73
2023/12/28 06:51:51;;;;;;;1999.90;999.90;;;10.60;99.10;;;;;;5033469;28;20183;-71
2023/12/28 06:54:16;;;;;;;1999.90;999.90;;;10.60;98.90;;;;;;5034350;28;20409;-72
2023/12/28 06:56:42;;;;;;;1999.90;999.90;;;10.60;99.90;;;;;;5034107;28;20551;-73
2023/12/28 06:59:11;;;;;;;1999.90;999.90;;;10.60;99.70;;;;;;5034394;28;20164;-71
2023/12/28 07:01:38;;;;;;;1999.90;999.90;;;10.50;99.70;;;;;;5034080;28;20251;-71
2023/12/28 07:04:03;;;;;;;1999.90;999.90;;;10.40;99.90;;;;;;5034113;28;20443;-71
2023/12/28 07:06:29;;;;;;;1999.90;999.90;;;10.50;99.90;;;;;;5034010;28;20768;-71
2023/12/28 07:08:54;;;;;;;1999.90;999.90;;;10.50;99.90;;;;;;5032861;28;20214;-72
2023/12/28 07:11:20;;;;;;;1999.90;999.90;;;10.40;99.90;;;;;;5033888;28;20176;-74
2023/12/28 07:13:45;;;;;;;1999.90;999.90;;;10.40;99.90;;;;;;5033915;28;20666;-72
2023/12/28 07:16:12;;;;;;;1999.90;999.90;;;10.20;99.90;;;;;;5033750;28;20173;-72
2023/12/28 07:18:37;;;;;;;1999.90;999.90;;;10.30;99.90;;;;;;5033939;28;20255;-72
2023/12/28 07:21:03;;;;;;;1999.90;999.90;;;10.30;99.90;;;;;;5033710;28;20489;-71
2023/12/28 07:23:30;;;;;;;1999.90;999.90;;;10.30;99.90;;;;;;5033676;28;20171;-72
2023/12/28 07:25:55;;;;;;;1999.90;999.90;;;10.30;99.90;;;;;;5033764;28;20191;-72
2023/12/28 07:28:21;;;;;;;1999.90;999.90;;;10.40;99.90;;;;;;5033695;28;20875;-72
2023/12/28 07:30:46;;;;;;;1999.90;999.90;;;10.40;99.90;;;;;;5033539;28;20170;-74
2023/12/28 07:33:12;;;;;;;1999.90;999.90;;;10.50;99.90;;;;;;5033925;28;20163;-71
2023/12/28 07:35:38;;;;;;;1999.90;999.90;;;10.50;99.90;;;;;;5033560;28;20171;-72
2023/12/28 07:38:04;;;;;;;1999.90;999.90;;;10.50;99.50;;;;;;5033175;28;20218;-71
2023/12/28 07:40:29;;;;;;;1999.90;999.90;;;10.40;99.90;;;;;;5032559;28;20781;-72
2023/12/28 07:42:56;;;;;;;1999.90;999.90;;;10.30;99.90;;;;;;5031391;28;20206;-73
2023/12/28 07:45:23;;;;;;;1999.90;999.90;;;10.40;99.90;;;;;;5033395;28;20170;-72
2023/12/28 07:47:52;;;;;;;1999.90;999.90;;;10.30;99.90;;;;;;5033275;28;20944;-71
2023/12/28 07:50:18;;;;;;;1999.90;999.90;;;10.40;99.90;;;;;;5033152;28;20514;-72
2023/12/28 07:52:45;;;;;;;1999.90;999.90;;;10.30;99.90;;;;;;5029896;28;20425;-72
2023/12/28 07:55:11;;;;;;;1999.90;999.90;;;10.40;99.90;;;;;;5033312;28;20413;-71
2023/12/28 07:57:36;;;;;;;1999.90;999.90;;;10.40;99.90;;;;;;5032993;28;20991;-73
2023/12/28 08:00:03;;;;;;;1999.90;999.90;;;10.50;99.90;;;;;;5032121;28;20171;-72
2023/12/28 08:02:29;;;;;;;1999.90;999.90;;;10.60;99.50;;;;;;5032066;28;20167;-71
2023/12/28 08:04:54;;;;;;;1999.90;999.90;;;10.50;98.30;;;;;;5032712;28;20540;-71
2023/12/28 08:07:20;;;;;;;1999.90;999.90;;;10.60;97.50;;;;;;5032960;28;20281;-72
2023/12/28 08:09:45;;;;;;;1999.90;999.90;;;10.60;97.60;;;;;;5033007;28;20508;-72
2023/12/28 08:12:11;;;;;;;1999.90;999.90;;;10.70;96.90;;;;;;5032743;28;20234;-74
2023/12/28 08:14:37;;;;;;;1999.90;999.90;;;10.70;96.20;;;;;;5032714;28;20175;-72
2023/12/28 08:17:03;;;;;;;1999.90;999.90;;;10.70;96.50;;;;;;5032464;28;20218;-71
2023/12/28 08:19:28;;;;;;;1999.90;999.90;;;10.80;95.00;;;;;;5032732;28;20576;-71
2023/12/28 08:21:54;;;;;;;1999.90;999.90;;;10.80;95.20;;;;;;5032453;28;20410;-72
2023/12/28 08:24:19;;;;;;;1999.90;999.90;;;10.80;95.50;;;;;;5032615;28;20169;-73
2023/12/28 08:26:45;;;;;;;1999.90;999.90;;;10.80;95.30;;;;;;5032557;28;20187;-73
2023/12/28 08:29:11;;;;;;;1999.90;999.90;;;10.80;94.50;;;;;;5032581;28;20175;-74
2023/12/28 08:31:37;;;;;;;1999.90;999.90;;;10.90;94.70;;;;;;5032324;28;20254;-74
2023/12/28 08:34:02;;;;;;;1999.90;999.90;;;10.90;93.80;;;;;;5032439;28;20410;-74
2023/12/28 08:36:28;;;;;;;1999.90;999.90;;;10.90;93.50;;;;;;5032320;28;20200;-73
2023/12/28 08:38:53;;;;;;;1999.90;999.90;;;10.90;93.30;;;;;;5032375;28;20182;-74
2023/12/28 08:41:29;;;;;;;1999.90;999.90;;;10.90;92.90;;;;;;5032179;28;20172;-74
2023/12/28 08:43:55;;;;;;;1999.90;999.90;;;11.00;92.60;;;;;;5032282;28;20189;-74
2023/12/28 08:46:22;;;;;;;1999.90;999.90;;;11.40;99.90;;;;;;5030093;28;20505;-74
2023/12/28 08:48:48;;;;;;;1999.90;999.90;;;11.00;92.40;;;;;;5031979;28;20276;-75
2023/12/28 08:51:14;;;;;;;1999.90;999.90;;;11.00;92.00;;;;;;5024127;28;20438;-74
2023/12/28 08:53:41;;;;;;;1999.90;999.90;;;11.10;90.80;;;;;;5032200;28;20183;-74
2023/12/28 08:56:23;;;;;;;1999.90;999.90;;;11.10;98.60;;;;;;5032010;28;20489;-74
2023/12/28 08:58:49;;;;;;;1999.90;999.90;;;11.20;89.40;;;;;;5032056;28;20410;-73
2023/12/28 09:01:18;;;;;;;1999.90;999.90;;;11.20;89.60;;;;;;5031912;28;20472;-74
2023/12/28 09:03:44;;;;;;;1999.90;999.90;;;11.20;90.20;;;;;;5032168;28;20406;-74
2023/12/28 09:06:10;;;;;;;1999.90;999.90;;;11.40;98.70;;;;;;5031981;28;20456;-74
2023/12/28 09:08:36;;;;;;;1999.90;999.90;;;11.20;90.50;;;;;;5032072;28;20414;-74
2023/12/28 09:11:01;;;;;;;1999.90;999.90;;;11.30;90.00;;;;;;5031696;28;20305;-74
2023/12/28 09:13:27;;;;;;;1999.90;999.90;;;11.20;86.80;;;;;;5031589;28;20210;-73
2023/12/28 09:15:52;;;;;;;1999.90;999.90;;;11.20;87.30;;;;;;5031899;28;20642;-73
2023/12/28 09:18:18;;;;;;;1999.90;999.90;;;11.20;87.60;;;;;;5031237;28;20200;-74
2023/12/28 09:20:44;;;;;;;1999.90;999.90;;;11.20;88.90;;;;;;5031605;28;20667;-73
2023/12/28 09:23:10;;;;;;;1999.90;999.90;;;11.20;90.10;;;;;;5023505;28;20407;-73
2023/12/28 09:25:38;;;;;;;1999.90;999.90;;;11.30;87.00;;;;;;5031103;28;20172;-73
2023/12/28 09:28:04;;;;;;;1999.90;999.90;;;11.30;85.20;;;;;;5021254;28;20845;-74
2023/12/28 09:30:30;;;;;;;1999.90;999.90;;;11.30;84.90;;;;;;5012191;28;20764;-72
2023/12/28 09:32:56;;;;;;;1999.90;999.90;;;11.30;84.00;;;;;;5028025;28;20432;-74
2023/12/28 09:35:21;;;;;;;1999.90;999.90;;;11.40;82.50;;;;;;5030864;28;20668;-72
2023/12/28 09:37:48;;;;;;;1999.90;999.90;;;11.40;80.80;;;;;;5030598;28;20218;-72
2023/12/28 09:40:15;;;;;;;1999.90;999.90;;;11.50;76.60;;;;;;5031370;28;20202;-73
2023/12/28 09:42:53;;;;;;;1999.90;999.90;;;11.60;75.40;;;;;;5028554;28;20425;-73
2023/12/28 09:45:20;;;;;;;1999.90;999.90;;;11.70;71.90;;;;;;5010749;28;20403;-74
2023/12/28 09:47:48;;;;;;;1999.90;999.90;;;11.70;71.90;;;;;;5011506;28;20435;-73
2023/12/28 09:50:17;;;;;;;1999.90;999.90;;;11.70;70.90;;;;;;5011412;28;20788;-73
2023/12/28 09:52:43;;;;;;;1999.90;999.90;;;11.80;69.90;;;;;;5010512;28;20918;-74
2023/12/28 09:55:09;;;;;;;1999.90;999.90;;;11.90;65.10;;;;;;5011301;28;20411;-74
2023/12/28 09:57:35;;;;;;;1999.90;999.90;;;11.90;62.80;;;;;;5011326;28;20848;-73
2023/12/28 10:00:02;;;;;;;1999.90;999.90;;;11.90;60.50;;;;;;5011130;28;20920;-74
2023/12/28 10:02:30;;;;;;;1999.90;999.90;;;12.00;57.90;;;;;;5011035;28;20414;-73
2023/12/28 10:04:55;;;;;;;1999.90;999.90;;;12.00;57.20;;;;;;5011356;28;20404;-73
2023/12/28 10:07:21;;;;;;;1999.90;999.90;;;12.00;56.80;;;;;;5011055;28;20872;-74
2023/12/28 10:09:47;;;;;;;1999.90;999.90;;;12.00;54.30;;;;;;5029544;28;20172;-74
2023/12/28 10:12:12;;;;;;;1999.90;999.90;;;12.10;55.00;;;;;;5042271;28;20662;-73
2023/12/28 10:14:38;;;;;;;1999.90;999.90;;;12.10;55.20;;;;;;5027844;28;20407;-73
2023/12/28 10:17:04;;;;;;;1999.90;999.90;;;12.10;53.10;;;;;;5029281;28;20289;-72
2023/12/28 10:19:29;;;;;;;1999.90;999.90;;;12.10;53.80;;;;;;5029915;28;20263;-74
2023/12/28 10:21:55;;;;;;;1999.90;999.90;;;12.10;55.50;;;;;;5028218;28;20222;-74
2023/12/28 10:24:21;;;;;;;1999.90;999.90;;;12.20;52.50;;;;;;5029048;28;20706;-74
2023/12/28 10:26:47;;;;;;;1999.90;999.90;;;12.20;50.90;;;;;;5031224;28;20463;-73
2023/12/28 10:29:13;;;;;;;1999.90;999.90;;;12.20;50.90;;;;;;5032873;28;20267;-72
2023/12/28 10:31:43;;;;;;;1999.90;999.90;;;12.20;47.80;;;;;;5032283;28;20200;-72
2023/12/28 10:34:09;;;;;;;1999.90;999.90;;;12.20;49.00;;;;;;5032568;28;20410;-73
2023/12/28 10:36:36;;;;;;;1999.90;999.90;;;12.20;48.10;;;;;;5031555;28;20546;-72
2023/12/28 10:39:05;;;;;;;1999.90;999.90;;;12.20;47.90;;;;;;5031887;28;20522;-72
2023/12/28 10:41:32;;;;;;;1999.90;999.90;;;12.30;48.80;;;;;;5030765;28;20977;-72
2023/12/28 10:44:05;;;;;;;1999.90;999.90;;;12.40;46.50;;;;;;5030727;28;20426;-72
2023/12/28 10:46:32;;;;;;;1999.90;999.90;;;12.40;47.30;;;;;;5031730;28;20949;-72
2023/12/28 10:49:00;;;;;;;1999.90;999.90;;;12.40;45.60;;;;;;5032297;28;20945;-72
2023/12/28 10:51:29;;;;;;;1999.90;999.90;;;12.40;44.00;;;;;;5031482;28;20920;-73
2023/12/28 10:54:22;;;;;;;1999.90;999.90;;;12.40;44.00;;;;;;5023154;28;20430;-73
2023/12/28 10:56:55;;;;;;;1999.90;999.90;;;12.50;43.40;;;;;;5031806;28;20466;-73
2023/12/28 10:59:21;;;;;;;1999.90;999.90;;;12.60;43.50;;;;;;5024176;28;20399;-73
2023/12/28 11:01:49;;;;;;;1999.90;999.90;;;12.70;44.80;;;;;;5031586;28;20749;-73
2023/12/28 11:04:30;;;;;;;1999.90;999.90;;;12.70;40.60;;;;;;5031905;28;20252;-72
2023/12/28 11:06:57;;;;;;;1999.90;999.90;;;12.70;38.90;;;;;;5028148;28;20444;-73
2023/12/28 11:09:26;;;;;;;1999.90;999.90;;;12.70;37.70;;;;;;5032959;28;20415;-72
2023/12/28 11:11:54;;;;;;;1999.90;999.90;;;12.80;39.10;;;;;;5033240;28;20473;-73
2023/12/28 11:14:21;;;;;;;1999.90;999.90;;;12.90;39.10;;;;;;5033073;28;20406;-73
2023/12/28 11:16:47;;;;;;;1999.90;999.90;;;13.00;37.90;;;;;;5033484;28;20468;-73
2023/12/28 11:19:13;;;;;;;1999.90;999.90;;;13.20;37.60;;;;;;5033295;28;20835;-73
2023/12/28 11:21:39;;;;;;;1999.90;999.90;;;13.30;33.80;;;;;;5031933;28;20407;-73
2023/12/28 11:24:06;;;;;;;1999.90;999.90;;;13.30;31.30;;;;;;5031053;28;20416;-72
2023/12/28 11:26:32;;;;;;;1999.90;999.90;;;13.50;29.20;;;;;;5033016;28;20494;-72
2023/12/28 11:29:02;;;;;;;1999.90;999.90;;;13.60;26.00;;;;;;5032678;28;20499;-72
2023/12/28 11:31:27;;;;;;;1999.90;999.90;;;13.70;26.10;;;;;;5032795;28;20180;-72
2023/12/28 11:33:53;;;;;;;1999.90;999.90;;;14.00;24.70;;;;;;5033172;28;20419;-73
2023/12/28 11:36:43;;;;;;;1999.90;999.90;;;14.30;32.10;;;;;;5024384;28;20226;-73
2023/12/28 11:39:10;;;;;;;1999.90;999.90;;;14.50;21.70;;;;;;5026658;28;20418;-72
2023/12/28 11:41:36;;;;;;;1999.90;999.90;;;14.70;21.40;;;;;;5032695;28;20443;-72
2023/12/28 11:44:05;;;;;;;1999.90;999.90;;;14.70;17.10;;;;;;5032588;28;20396;-72
2023/12/28 11:46:32;;;;;;;1999.90;999.90;;;14.60;16.60;;;;;;5032990;28;20427;-73
2023/12/28 11:49:07;;;;;;;1999.90;999.90;;;14.80;17.20;;;;;;5033043;28;20489;-73
2023/12/28 11:51:38;;;;;;;1999.90;999.90;;;14.90;13.10;;;;;;5032062;28;20402;-73
2023/12/28 11:54:05;;;;;;;1999.90;999.90;;;14.60;13.50;;;;;;5031840;28;20443;-72
2023/12/28 11:56:31;;;;;;;1999.90;999.90;;;14.50;13.20;;;;;;5032556;28;20979;-72